createdAt,value
2018-05-19T00:00:57.062Z,72.20
2018-05-19T00:03:25.952Z,72.70
2018-05-19T00:05:54.065Z,72.30
2018-05-19T00:08:22.269Z,73.00
2018-05-19T00:10:50.410Z,74.50
2018-05-19T00:13:18.533Z,75.70
2018-05-19T00:15:47.427Z,77.70
2018-05-19T00:18:16.395Z,78.10
2018-05-19T00:20:44.524Z,78.40
2018-05-19T00:23:12.653Z,78.50
2018-05-19T00:25:41.575Z,77.60
2018-05-19T00:28:09.710Z,74.50
2018-05-19T00:30:37.826Z,74.60
2018-05-19T00:33:05.970Z,76.70
2018-05-19T00:35:34.847Z,76.10
2018-05-19T00:38:03.015Z,74.60
2018-05-19T00:40:31.127Z,73.70
2018-05-19T00:42:59.243Z,72.70
2018-05-19T00:45:27.362Z,73.10
2018-05-19T00:47:55.500Z,73.70
2018-05-19T00:50:23.620Z,75.10
2018-05-19T00:52:51.746Z,75.00
2018-05-19T00:55:19.871Z,74.70
2018-05-19T00:57:47.998Z,73.90
2018-05-19T01:00:16.139Z,74.40
2018-05-19T01:02:44.273Z,76.00
2018-05-19T01:05:13.155Z,76.40
2018-05-19T01:07:42.127Z,77.00
2018-05-19T01:10:10.242Z,76.30
2018-05-19T01:12:38.375Z,76.60
2018-05-19T01:15:06.488Z,77.40
2018-05-19T01:17:34.630Z,73.80
2018-05-19T01:20:02.773Z,76.40
2018-05-19T01:22:30.902Z,77.10
2018-05-19T01:24:59.080Z,78.90
2018-05-19T01:27:27.316Z,79.20
2018-05-19T01:29:55.436Z,81.70
2018-05-19T01:32:23.556Z,82.30
2018-05-19T01:34:51.672Z,83.10
2018-05-19T01:37:19.804Z,84.00
2018-05-19T01:39:47.931Z,83.40
2018-05-19T01:42:16.061Z,82.70
2018-05-19T01:44:44.186Z,83.20
2018-05-19T01:47:18.344Z,83.50
2018-05-19T01:49:46.491Z,82.50
2018-05-19T01:52:14.998Z,85.30
2018-05-19T01:54:43.124Z,87.20
2018-05-19T01:57:11.877Z,87.90
2018-05-19T01:59:40.753Z,90.40
2018-05-19T02:02:09.288Z,90.60
2018-05-19T02:04:37.416Z,91.40
2018-05-19T02:07:06.501Z,91.30
2018-05-19T02:09:34.620Z,90.10
2018-05-19T02:12:02.739Z,89.40
2018-05-19T02:14:30.862Z,90.00
2018-05-19T02:16:58.969Z,90.70
2018-05-19T02:19:27.088Z,90.80
2018-05-19T02:21:55.975Z,90.70
2018-05-19T02:24:24.875Z,90.60
2018-05-19T02:26:52.992Z,91.20
2018-05-19T02:29:21.127Z,90.80
2018-05-19T02:31:49.271Z,91.00
2018-05-19T02:34:17.395Z,91.20
2018-05-19T02:36:45.519Z,91.40
2018-05-19T02:39:14.393Z,91.00
2018-05-19T02:41:42.527Z,89.70
2018-05-19T02:44:10.653Z,89.80
2018-05-19T02:46:38.784Z,90.10
2018-05-19T02:49:06.917Z,90.00
2018-05-19T02:51:35.056Z,91.10
2018-05-19T02:54:03.175Z,90.20
2018-05-19T02:56:31.320Z,90.10
2018-05-19T02:58:59.489Z,89.50
2018-05-19T03:01:27.609Z,90.60
2018-05-19T03:03:55.727Z,90.30
2018-05-19T03:06:23.838Z,90.80
2018-05-19T03:08:55.453Z,92.10
2018-05-19T03:11:25.567Z,92.10
2018-05-19T03:13:53.700Z,92.70
2018-05-19T03:16:21.798Z,93.10
2018-05-19T03:18:50.007Z,92.50
2018-05-19T03:21:18.133Z,91.50
2018-05-19T03:23:46.245Z,90.30
2018-05-19T03:26:14.415Z,90.30
2018-05-19T03:28:42.550Z,91.00
2018-05-19T03:31:11.486Z,90.60
2018-05-19T03:33:39.609Z,90.80
2018-05-19T03:36:08.541Z,92.80
2018-05-19T03:38:39.692Z,92.90
2018-05-19T03:41:07.808Z,92.50
2018-05-19T03:43:35.938Z,92.40
2018-05-19T03:46:04.757Z,92.40
2018-05-19T03:48:33.009Z,92.20
2018-05-19T03:51:01.133Z,91.50
2018-05-19T03:53:29.268Z,92.20
2018-05-19T03:55:57.384Z,93.20
2018-05-19T03:58:39.377Z,92.80
2018-05-19T04:01:19.275Z,92.30
2018-05-19T04:03:47.389Z,92.80
2018-05-19T04:06:15.504Z,94.00
2018-05-19T04:08:45.194Z,94.30
2018-05-19T04:11:14.161Z,94.20
2018-05-19T04:13:42.296Z,94.40
2018-05-19T04:16:10.413Z,92.40
2018-05-19T04:18:39.549Z,90.20
2018-05-19T04:21:07.681Z,90.00
2018-05-19T04:23:36.617Z,88.60
2018-05-19T04:26:04.744Z,90.60
2018-05-19T04:28:40.107Z,90.80
2018-05-19T04:31:08.304Z,89.80
2018-05-19T04:33:36.436Z,91.00
2018-05-19T04:36:04.544Z,92.10
2018-05-19T04:38:32.846Z,92.80
2018-05-19T04:41:01.738Z,93.30
2018-05-19T04:43:30.624Z,92.10
2018-05-19T04:45:58.751Z,92.10
2018-05-19T04:48:31.355Z,92.50
2018-05-19T04:50:59.478Z,91.80
2018-05-19T04:53:27.595Z,91.20
2018-05-19T04:55:56.651Z,91.10
2018-05-19T04:58:24.956Z,90.70
2018-05-19T05:00:53.024Z,91.10
2018-05-19T05:03:21.163Z,83.30
2018-05-19T05:05:49.283Z,86.40
2018-05-19T05:08:18.095Z,88.60
2018-05-19T05:10:46.243Z,85.40
2018-05-19T05:13:14.923Z,85.70
2018-05-19T05:15:43.065Z,83.40
2018-05-19T05:18:11.960Z,82.20
2018-05-19T05:20:40.686Z,84.10
2018-05-19T05:23:08.789Z,86.10
2018-05-19T05:25:37.672Z,82.90
2018-05-19T05:28:05.844Z,78.70
2018-05-19T05:30:33.978Z,77.00
2018-05-19T05:33:02.104Z,75.80
2018-05-19T05:35:30.990Z,75.20
2018-05-19T05:37:59.983Z,71.70
2018-05-19T05:40:28.124Z,72.00
2018-05-19T05:42:56.250Z,72.70
2018-05-19T05:45:24.378Z,72.70
2018-05-19T05:47:52.519Z,71.80
2018-05-19T05:50:20.645Z,72.50
2018-05-19T05:52:48.772Z,71.50
2018-05-19T05:55:16.967Z,70.30
2018-05-19T05:57:45.171Z,73.50
2018-05-19T06:00:13.517Z,70.70
2018-05-19T06:02:41.656Z,73.10
2018-05-19T06:05:11.986Z,75.80
2018-05-19T06:07:41.155Z,74.20
2018-05-19T06:10:09.593Z,74.60
2018-05-19T06:12:37.708Z,73.30
2018-05-19T06:15:05.838Z,70.00
2018-05-19T06:17:34.888Z,70.50
2018-05-19T06:20:02.997Z,73.00
2018-05-19T06:22:31.113Z,72.00
2018-05-19T06:25:00.073Z,67.60
2018-05-19T06:27:28.991Z,66.30
2018-05-19T06:29:57.124Z,65.90
2018-05-19T06:32:25.265Z,66.00
2018-05-19T06:34:53.451Z,63.90
2018-05-19T06:37:21.817Z,62.30
2018-05-19T06:39:50.707Z,61.80
2018-05-19T06:42:19.080Z,60.40
2018-05-19T06:44:47.212Z,57.70
2018-05-19T06:47:16.326Z,56.60
2018-05-19T06:49:46.008Z,53.80
2018-05-19T06:52:14.233Z,51.00
2018-05-19T06:54:42.767Z,49.60
2018-05-19T06:57:13.542Z,51.60
2018-05-19T06:59:41.595Z,50.90
2018-05-19T07:02:09.732Z,49.90
2018-05-19T07:04:37.895Z,49.10
2018-05-19T07:07:06.862Z,48.40
2018-05-19T07:09:35.974Z,45.70
2018-05-19T07:12:06.771Z,47.50
2018-05-19T07:14:34.886Z,46.50
2018-05-19T07:17:13.976Z,47.00
2018-05-19T07:19:42.109Z,46.50
2018-05-19T07:22:10.798Z,46.40
2018-05-19T07:24:38.914Z,45.70
2018-05-19T07:27:07.898Z,47.00
2018-05-19T07:29:36.022Z,47.10
2018-05-19T07:32:04.157Z,48.20
2018-05-19T07:34:32.317Z,47.50
2018-05-19T07:37:00.513Z,47.60
2018-05-19T07:39:28.796Z,47.40
2018-05-19T07:41:57.940Z,47.70
2018-05-19T07:44:26.064Z,48.30
2018-05-19T07:49:24.324Z,47.90
2018-05-19T07:51:52.488Z,46.10
2018-05-19T07:54:20.596Z,46.20
2018-05-19T07:56:48.711Z,46.50
2018-05-19T07:59:16.842Z,47.00
2018-05-19T08:01:45.804Z,47.90
2018-05-19T08:04:14.050Z,46.10
2018-05-19T08:06:42.057Z,46.80
2018-05-19T08:09:10.181Z,48.30
2018-05-19T08:11:38.322Z,49.10
2018-05-19T08:14:06.512Z,48.80
2018-05-19T08:16:35.384Z,48.60
2018-05-19T08:19:04.284Z,47.90
2018-05-19T08:21:33.186Z,47.70
2018-05-19T08:24:02.128Z,45.80
2018-05-19T08:26:30.304Z,43.90
2018-05-19T08:28:58.511Z,44.30
2018-05-19T08:31:27.399Z,41.10
2018-05-19T08:33:56.350Z,41.50
2018-05-19T08:36:24.482Z,39.90
2018-05-19T08:38:53.654Z,37.50
2018-05-19T08:41:21.770Z,37.60
2018-05-19T08:43:49.899Z,35.20
2018-05-19T08:46:18.121Z,35.20
2018-05-19T08:48:46.359Z,33.60
2018-05-19T08:51:14.911Z,33.10
2018-05-19T08:53:43.083Z,33.50
2018-05-19T08:56:11.905Z,31.10
2018-05-19T08:58:40.118Z,29.50
2018-05-19T09:01:08.275Z,30.30
2018-05-19T09:03:36.383Z,26.90
2018-05-19T09:06:04.511Z,26.20
2018-05-19T09:08:32.761Z,25.70
2018-05-19T09:11:00.900Z,27.50
2018-05-19T09:13:29.747Z,28.20
2018-05-19T09:15:57.902Z,27.70
2018-05-19T09:18:26.088Z,27.50
2018-05-19T09:20:54.227Z,29.50
2018-05-19T09:23:22.347Z,29.90
2018-05-19T09:25:50.997Z,29.30
2018-05-19T09:28:19.206Z,29.30
2018-05-19T09:30:48.267Z,29.70
2018-05-19T09:33:18.285Z,30.20
2018-05-19T09:35:46.493Z,31.20
2018-05-19T09:38:14.763Z,32.10
2018-05-19T09:40:43.226Z,31.00
2018-05-19T09:43:11.362Z,30.30
2018-05-19T09:45:56.395Z,31.10
2018-05-19T09:48:32.361Z,31.60
2018-05-19T09:51:07.738Z,29.70
2018-05-19T09:53:37.878Z,31.10
2018-05-19T09:56:07.799Z,31.50
2018-05-19T09:58:36.001Z,32.50
2018-05-19T10:01:07.896Z,32.00
2018-05-19T10:03:36.089Z,31.90
2018-05-19T10:06:05.086Z,32.30
2018-05-19T10:08:35.282Z,32.50
2018-05-19T10:11:03.490Z,35.70
2018-05-19T10:16:48.659Z,34.10
2018-05-19T10:19:18.138Z,32.90
2018-05-19T10:21:47.510Z,32.80
2018-05-19T10:24:16.823Z,31.50
2018-05-19T10:26:45.436Z,30.70
2018-05-19T10:29:13.588Z,30.00
2018-05-19T10:31:42.122Z,28.60
2018-05-19T10:34:10.260Z,29.40
2018-05-19T10:36:39.127Z,28.10
2018-05-19T10:39:07.251Z,28.80
2018-05-19T10:41:35.763Z,28.30
2018-05-19T10:44:03.907Z,29.20
2018-05-19T10:46:32.111Z,27.60
2018-05-19T10:49:01.126Z,26.20
2018-05-19T10:51:30.632Z,24.90
2018-05-19T10:53:59.529Z,26.70
2018-05-19T10:56:28.502Z,26.30
2018-05-19T10:59:00.766Z,26.40
2018-05-19T11:01:37.113Z,23.70
2018-05-19T11:04:05.247Z,26.50
2018-05-19T11:06:33.826Z,24.80
2018-05-19T11:09:13.410Z,23.70
2018-05-19T11:11:56.702Z,25.70
2018-05-19T11:14:24.817Z,25.50
2018-05-19T11:16:54.184Z,25.00
2018-05-19T11:19:22.801Z,23.80
2018-05-19T11:21:56.669Z,23.20
2018-05-19T11:24:24.879Z,23.70
2018-05-19T11:26:53.006Z,23.80
2018-05-19T11:29:21.149Z,23.30
2018-05-19T11:31:50.082Z,23.30
2018-05-19T11:34:18.212Z,22.80
2018-05-19T11:36:46.495Z,23.40
2018-05-19T11:39:14.667Z,23.40
2018-05-19T11:41:42.832Z,23.90
2018-05-19T11:44:11.044Z,22.40
2018-05-19T11:46:39.200Z,23.20
2018-05-19T11:49:07.322Z,20.80
2018-05-19T11:51:35.452Z,21.90
2018-05-19T11:54:03.598Z,22.10
2018-05-19T11:56:31.803Z,22.40
2018-05-19T11:58:59.943Z,23.80
2018-05-19T12:01:28.161Z,24.90
2018-05-19T12:03:56.407Z,22.80
2018-05-19T12:06:25.432Z,23.30
2018-05-19T12:08:59.718Z,20.80
2018-05-19T12:11:28.647Z,20.70
2018-05-19T12:13:56.813Z,20.80
2018-05-19T12:16:24.928Z,19.30
2018-05-19T12:18:53.941Z,20.70
2018-05-19T12:21:22.183Z,20.10
2018-05-19T12:23:50.357Z,18.10
2018-05-19T12:26:18.963Z,19.50
2018-05-19T12:28:49.119Z,18.60
2018-05-19T12:31:17.282Z,18.40
2018-05-19T12:33:45.812Z,17.90
2018-05-19T12:36:13.948Z,18.10
2018-05-19T12:38:42.280Z,19.90
2018-05-19T12:41:10.766Z,18.50
2018-05-19T12:43:38.953Z,17.90
2018-05-19T12:46:07.073Z,18.40
2018-05-19T12:48:35.482Z,17.80
2018-05-19T12:51:03.627Z,17.00
2018-05-19T12:53:31.746Z,18.00
2018-05-19T12:55:59.872Z,17.10
2018-05-19T12:58:29.009Z,17.30
2018-05-19T13:00:57.167Z,16.80
2018-05-19T13:03:25.342Z,16.10
2018-05-19T13:05:54.184Z,19.50
2018-05-19T13:08:22.347Z,17.50
2018-05-19T13:10:50.551Z,17.10
2018-05-19T13:13:19.079Z,17.90
2018-05-19T13:15:47.200Z,17.20
2018-05-19T13:18:18.725Z,17.70
2018-05-19T13:20:46.872Z,14.50
2018-05-19T13:23:15.094Z,15.00
2018-05-19T13:25:43.969Z,16.10
2018-05-19T13:28:13.182Z,15.40
2018-05-19T13:30:42.095Z,17.10
2018-05-19T13:33:10.219Z,16.80
2018-05-19T13:35:38.737Z,17.10
2018-05-19T13:38:06.993Z,15.80
2018-05-19T13:40:35.205Z,16.30
2018-05-19T13:43:03.372Z,15.90
2018-05-19T13:45:31.503Z,15.70
2018-05-19T13:47:59.680Z,14.30
2018-05-19T13:50:27.790Z,14.70
2018-05-19T13:52:55.909Z,14.30
2018-05-19T13:55:24.020Z,14.20
2018-05-19T13:57:53.045Z,14.40
2018-05-19T14:00:21.113Z,14.20
2018-05-19T14:02:49.243Z,13.70
2018-05-19T14:05:17.440Z,13.10
2018-05-19T14:07:46.923Z,14.20
2018-05-19T14:10:15.825Z,12.60
2018-05-19T14:12:43.986Z,13.30
2018-05-19T14:15:12.157Z,13.10
2018-05-19T14:17:47.151Z,13.80
2018-05-19T14:20:22.199Z,14.30
2018-05-19T14:22:50.320Z,14.10
2018-05-19T14:25:18.854Z,14.80
2018-05-19T14:27:47.834Z,15.60
2018-05-19T14:30:16.970Z,15.50
2018-05-19T14:32:45.058Z,16.20
2018-05-19T14:35:13.584Z,16.40
2018-05-19T14:37:44.877Z,16.60
2018-05-19T14:40:14.143Z,17.00
2018-05-19T14:42:42.235Z,17.70
2018-05-19T14:45:10.609Z,17.90
2018-05-19T14:47:39.834Z,18.30
2018-05-19T14:50:07.964Z,19.00
2018-05-19T14:52:36.083Z,17.90
2018-05-19T14:55:04.968Z,18.70
2018-05-19T14:57:33.129Z,18.70
2018-05-19T15:00:01.269Z,19.00
2018-05-19T15:02:31.635Z,19.40
2018-05-19T15:05:00.531Z,19.60
2018-05-19T15:07:29.122Z,19.50
2018-05-19T15:09:57.245Z,18.90
2018-05-19T15:12:25.352Z,18.90
2018-05-19T15:14:54.237Z,19.50
2018-05-19T15:17:23.568Z,19.30
2018-05-19T15:19:51.679Z,19.00
2018-05-19T15:22:19.822Z,19.20
2018-05-19T15:24:47.927Z,19.90
2018-05-19T15:27:16.126Z,19.00
2018-05-19T15:29:44.256Z,19.00
2018-05-19T15:32:12.387Z,19.30
2018-05-19T15:34:42.104Z,20.40
2018-05-19T15:37:10.264Z,20.30
2018-05-19T15:39:38.400Z,21.30
2018-05-19T15:42:06.526Z,22.30
2018-05-19T15:44:35.420Z,23.40
2018-05-19T15:47:03.720Z,23.60
2018-05-19T15:49:31.870Z,23.90
2018-05-19T15:51:59.993Z,21.90
2018-05-19T15:54:28.201Z,22.80
2018-05-19T15:56:56.373Z,22.90
2018-05-19T15:59:25.297Z,23.20
2018-05-19T16:01:53.466Z,23.40
2018-05-19T16:04:22.391Z,23.40
2018-05-19T16:06:50.561Z,23.10
2018-05-19T16:09:18.743Z,23.10
2018-05-19T16:11:46.882Z,23.40
2018-05-19T16:14:15.058Z,22.90
2018-05-19T16:16:44.351Z,22.40
2018-05-19T16:19:12.500Z,22.40
2018-05-19T16:21:40.646Z,22.40
2018-05-19T16:24:08.779Z,22.90
2018-05-19T16:26:36.906Z,23.00
2018-05-19T16:29:05.083Z,23.50
2018-05-19T16:31:33.220Z,23.50
2018-05-19T16:34:02.128Z,23.30
2018-05-19T16:36:30.270Z,22.70
2018-05-19T16:39:05.181Z,22.80
2018-05-19T16:41:33.307Z,22.10
2018-05-19T16:44:01.493Z,21.90
2018-05-19T16:46:29.620Z,22.30
2018-05-19T16:48:57.854Z,22.40
2018-05-19T16:51:26.007Z,23.00
2018-05-19T16:53:54.148Z,22.90
2018-05-19T16:56:22.280Z,23.20
2018-05-19T16:58:51.369Z,22.50
2018-05-19T17:01:19.734Z,23.40
2018-05-19T17:03:47.863Z,22.50
2018-05-19T17:06:15.995Z,22.70
2018-05-19T17:08:52.332Z,22.60
2018-05-19T17:11:20.466Z,23.60
2018-05-19T17:13:48.616Z,23.20
2018-05-19T17:16:16.734Z,23.80
2018-05-19T17:18:44.949Z,24.70
2018-05-19T17:21:13.078Z,24.60
2018-05-19T17:23:41.196Z,25.00
2018-05-19T17:26:09.325Z,24.70
2018-05-19T17:28:40.919Z,25.00
2018-05-19T17:31:09.128Z,24.70
2018-05-19T17:33:41.393Z,24.90
2018-05-19T17:36:09.508Z,25.10
2018-05-19T17:38:37.742Z,25.50
2018-05-19T17:41:05.875Z,25.10
2018-05-19T17:43:34.000Z,25.40
2018-05-19T17:46:02.131Z,25.40
2018-05-19T17:48:34.112Z,25.50
2018-05-19T17:51:02.225Z,24.70
2018-05-19T17:53:30.359Z,25.20
2018-05-19T17:55:59.294Z,26.00
2018-05-19T17:58:31.159Z,25.10
2018-05-19T18:01:00.415Z,25.30
2018-05-19T18:03:28.696Z,25.30
2018-05-19T18:05:56.827Z,25.60
2018-05-19T18:08:25.026Z,24.90
2018-05-19T18:10:53.135Z,24.70
2018-05-19T18:13:21.338Z,26.00
2018-05-19T18:15:49.425Z,26.00
2018-05-19T18:18:17.673Z,26.80
2018-05-19T18:20:45.805Z,26.80
2018-05-19T18:23:13.935Z,27.30
2018-05-19T18:25:42.049Z,26.80
2018-05-19T18:28:11.039Z,27.70
2018-05-19T18:30:39.916Z,27.80
2018-05-19T18:33:08.007Z,27.40
2018-05-19T18:35:36.232Z,29.30
2018-05-19T18:38:04.353Z,29.80
2018-05-19T18:40:32.479Z,31.30
2018-05-19T18:43:00.620Z,30.30
2018-05-19T18:45:28.747Z,30.00
2018-05-19T18:47:57.878Z,32.00
2018-05-19T18:50:26.035Z,30.80
2018-05-19T18:53:00.109Z,31.00
2018-05-19T18:55:28.260Z,31.40
2018-05-19T18:57:56.509Z,31.50
2018-05-19T19:00:25.415Z,32.40
2018-05-19T19:02:54.328Z,30.90
2018-05-19T19:05:22.422Z,30.50
2018-05-19T19:07:50.657Z,30.00
2018-05-19T19:10:19.545Z,31.40
2018-05-19T19:12:48.441Z,32.00
2018-05-19T19:15:16.592Z,32.00
2018-05-19T19:17:44.789Z,30.40
2018-05-19T19:20:12.902Z,30.40
2018-05-19T19:22:41.027Z,30.90
2018-05-19T19:25:09.910Z,34.70
2018-05-19T19:27:38.501Z,39.70
2018-05-19T19:30:06.978Z,47.20
2018-05-19T19:32:36.146Z,49.60
2018-05-19T19:35:06.833Z,57.70
2018-05-19T19:37:35.070Z,60.60
2018-05-19T19:40:03.576Z,76.20
2018-05-19T19:42:32.544Z,65.50
2018-05-19T19:45:01.952Z,66.10
2018-05-19T19:47:33.002Z,79.10
2018-05-19T19:50:01.581Z,75.70
2018-05-19T19:52:30.386Z,78.10
2018-05-19T19:54:59.259Z,79.90
2018-05-19T19:57:27.424Z,88.60
2018-05-19T19:59:56.049Z,83.20
2018-05-19T20:02:26.334Z,84.00
2018-05-19T20:04:54.446Z,85.40
2018-05-19T20:07:22.616Z,87.00
2018-05-19T20:09:50.751Z,88.20
2018-05-19T20:12:19.414Z,87.70
2018-05-19T20:14:47.585Z,91.40
2018-05-19T20:17:15.692Z,90.60
2018-05-19T20:19:43.836Z,92.20
2018-05-19T20:22:12.006Z,90.60
2018-05-19T20:24:40.196Z,81.00
2018-05-19T20:27:08.393Z,83.20
2018-05-19T20:29:37.270Z,90.00
2018-05-19T20:32:05.433Z,92.60
2018-05-19T20:34:34.237Z,92.90
2018-05-19T20:37:03.364Z,84.10
2018-05-19T20:39:31.433Z,90.60
2018-05-19T20:41:59.546Z,91.10
2018-05-19T20:44:27.676Z,91.80
2018-05-19T20:46:55.809Z,93.40
2018-05-19T20:49:23.915Z,92.90
2018-05-19T20:51:52.795Z,92.80
2018-05-19T20:54:20.913Z,93.30
2018-05-19T20:56:49.020Z,94.20
2018-05-19T20:59:17.151Z,93.00
2018-05-19T21:01:45.261Z,92.10
2018-05-19T21:04:13.378Z,91.70
2018-05-19T21:06:41.491Z,93.40
2018-05-19T21:09:09.611Z,94.10
2018-05-19T21:11:38.704Z,92.30
2018-05-19T21:14:06.810Z,93.40
2018-05-19T21:16:34.924Z,93.50
2018-05-19T21:19:03.054Z,93.90
2018-05-19T21:21:31.163Z,92.40
2018-05-19T21:23:59.288Z,92.10
2018-05-19T21:26:27.426Z,91.80
2018-05-19T21:28:58.770Z,90.00
2018-05-19T21:31:35.145Z,91.70
2018-05-19T21:34:03.255Z,93.30
2018-05-19T21:36:31.379Z,90.90
2018-05-19T21:38:59.887Z,92.40
2018-05-19T21:41:29.811Z,94.10
2018-05-19T21:43:57.926Z,92.40
2018-05-19T21:46:28.961Z,94.00
2018-05-19T21:48:59.116Z,94.20
2018-05-19T21:51:27.218Z,94.80
2018-05-19T21:53:56.106Z,95.40
2018-05-19T21:56:24.265Z,95.00
2018-05-19T21:58:52.443Z,95.60
2018-05-19T22:01:21.339Z,95.80
2018-05-19T22:03:49.860Z,96.30
2018-05-19T22:06:18.965Z,96.70
2018-05-19T22:08:47.485Z,97.40
2018-05-19T22:11:15.600Z,96.60
2018-05-19T22:13:44.707Z,96.20
2018-05-19T22:16:13.375Z,94.60
2018-05-19T22:18:43.575Z,94.10
2018-05-19T22:21:11.701Z,95.20
2018-05-19T22:23:39.839Z,95.70
2018-05-19T22:26:07.966Z,95.70
2018-05-19T22:28:36.085Z,94.00
2018-05-19T22:31:04.195Z,94.10
2018-05-19T22:33:32.302Z,96.40
2018-05-19T22:36:00.410Z,96.40
2018-05-19T22:38:30.576Z,97.00
2018-05-19T22:40:58.707Z,96.60
2018-05-19T22:43:27.043Z,95.10
2018-05-19T22:45:55.176Z,94.50
2018-05-19T22:48:24.400Z,96.10
2018-05-19T22:50:54.337Z,94.60
2018-05-19T22:53:22.464Z,94.70
2018-05-19T22:55:50.572Z,95.30
2018-05-19T22:58:21.961Z,97.20
2018-05-19T23:00:50.069Z,97.60
2018-05-19T23:03:18.210Z,97.20
2018-05-19T23:05:46.445Z,97.60
2018-05-19T23:08:14.629Z,94.30
2018-05-19T23:10:42.757Z,95.10
2018-05-19T23:13:10.879Z,96.70
2018-05-19T23:15:39.826Z,97.10
2018-05-19T23:18:07.945Z,95.70
2018-05-19T23:20:36.091Z,95.00
2018-05-19T23:23:04.193Z,95.40
2018-05-19T23:25:33.067Z,97.20
2018-05-19T23:28:01.237Z,95.50
2018-05-19T23:30:29.350Z,94.00
2018-05-19T23:32:58.243Z,95.40
2018-05-19T23:35:26.370Z,96.20
2018-05-19T23:37:54.551Z,97.50
2018-05-19T23:40:23.186Z,97.40
2018-05-19T23:42:51.303Z,96.50
2018-05-19T23:45:19.817Z,95.40
2018-05-19T23:47:51.954Z,95.30
2018-05-19T23:50:20.148Z,96.20
2018-05-19T23:52:48.307Z,96.00
2018-05-19T23:55:16.457Z,97.20
2018-05-19T23:57:44.748Z,98.80
